createdAt,value
2018-01-25T00:01:56.847Z,1.20
2018-01-25T00:04:25.191Z,1.12
2018-01-25T00:06:53.501Z,0.93
2018-01-25T00:09:21.848Z,0.90
2018-01-25T00:11:50.161Z,1.00
2018-01-25T00:14:18.514Z,1.10
2018-01-25T00:16:46.833Z,1.00
2018-01-25T00:19:15.181Z,1.30
2018-01-25T00:21:43.493Z,1.30
2018-01-25T00:24:11.837Z,1.23
2018-01-25T00:26:40.158Z,0.90
2018-01-25T00:29:08.505Z,1.25
2018-01-25T00:31:36.816Z,0.83
2018-01-25T00:34:05.174Z,1.00
2018-01-25T00:36:33.502Z,1.40
2018-01-25T00:39:01.842Z,1.23
2018-01-25T00:41:30.170Z,1.00
2018-01-25T00:43:58.518Z,1.10
2018-01-25T00:46:26.848Z,1.00
2018-01-25T00:48:55.185Z,1.07
2018-01-25T00:51:23.497Z,1.30
2018-01-25T00:53:51.845Z,1.00
2018-01-25T00:56:20.165Z,0.97
2018-01-25T00:58:48.505Z,1.00
2018-01-25T01:01:16.821Z,1.03
2018-01-25T01:03:45.159Z,1.30
2018-01-25T01:06:13.469Z,1.30
2018-01-25T01:08:41.826Z,1.27
2018-01-25T01:11:10.137Z,1.50
2018-01-25T01:13:38.478Z,1.20
2018-01-25T01:16:06.810Z,1.30
2018-01-25T01:18:35.129Z,1.00
2018-01-25T01:21:03.477Z,0.95
2018-01-25T01:23:31.793Z,1.17
2018-01-25T01:26:00.149Z,1.33
2018-01-25T01:28:28.477Z,1.75
2018-01-25T01:30:56.821Z,1.10
2018-01-25T01:33:25.150Z,1.35
2018-01-25T01:35:53.497Z,0.80
2018-01-25T01:38:21.821Z,0.70
2018-01-25T01:40:50.161Z,0.77
2018-01-25T01:43:18.488Z,0.55
2018-01-25T01:45:46.836Z,0.70
2018-01-25T01:48:15.167Z,0.60
2018-01-25T01:50:43.514Z,0.73
2018-01-25T01:53:11.850Z,0.60
2018-01-25T01:55:40.186Z,0.57
2018-01-25T01:58:08.510Z,0.50
2018-01-25T02:00:36.844Z,0.80
2018-01-25T02:03:05.173Z,0.50
2018-01-25T02:05:33.782Z,0.60
2018-01-25T02:08:02.073Z,0.50
2018-01-25T02:10:30.414Z,0.50
2018-01-25T02:12:58.729Z,0.50
2018-01-25T02:15:27.066Z,0.50
2018-01-25T02:17:55.381Z,0.50
2018-01-25T02:20:23.717Z,0.50
2018-01-25T02:22:52.034Z,0.60
2018-01-25T02:25:20.368Z,0.50
2018-01-25T02:27:48.689Z,0.60
2018-01-25T02:30:17.021Z,0.60
2018-01-25T02:32:45.337Z,0.52
2018-01-25T02:35:13.674Z,0.60
2018-01-25T02:37:41.994Z,0.50
2018-01-25T02:40:10.333Z,0.50
2018-01-25T02:42:39.489Z,0.50
2018-01-25T02:45:07.829Z,0.60
2018-01-25T02:47:36.145Z,0.55
2018-01-25T02:50:04.474Z,0.50
2018-01-25T02:52:32.795Z,0.50
2018-01-25T02:55:01.125Z,0.70
2018-01-25T02:57:29.445Z,0.50
2018-01-25T02:59:57.782Z,0.60
2018-01-25T03:02:26.089Z,0.50
2018-01-25T03:04:54.421Z,0.50
2018-01-25T03:07:22.733Z,0.45
2018-01-25T03:09:51.069Z,0.52
2018-01-25T03:12:19.385Z,0.40
2018-01-25T03:14:47.717Z,0.50
2018-01-25T03:17:16.041Z,0.52
2018-01-25T03:19:44.353Z,0.60
2018-01-25T03:22:12.693Z,0.60
2018-01-25T03:24:41.005Z,0.60
2018-01-25T03:27:09.338Z,0.60
2018-01-25T03:29:37.661Z,0.60
2018-01-25T03:32:06.001Z,0.57
2018-01-25T03:34:34.313Z,0.65
2018-01-25T03:37:02.654Z,0.60
2018-01-25T03:39:30.970Z,0.57
2018-01-25T03:41:59.301Z,0.60
2018-01-25T03:44:27.621Z,0.57
2018-01-25T03:46:55.953Z,0.60
2018-01-25T03:49:24.270Z,0.70
2018-01-25T03:51:52.605Z,0.60
2018-01-25T03:54:20.926Z,0.75
2018-01-25T03:56:49.260Z,0.60
2018-01-25T03:59:17.574Z,0.95
2018-01-25T04:01:45.912Z,0.60
2018-01-25T04:04:14.225Z,0.60
2018-01-25T04:06:42.568Z,0.70
2018-01-25T04:09:10.881Z,0.85
2018-01-25T04:11:39.221Z,0.80
2018-01-25T04:14:07.533Z,0.70
2018-01-25T04:16:35.876Z,0.93
2018-01-25T04:19:04.397Z,0.80
2018-01-25T04:21:32.733Z,0.82
2018-01-25T04:24:01.054Z,0.70
2018-01-25T04:26:29.390Z,0.80
2018-01-25T04:28:57.705Z,0.57
2018-01-25T04:31:26.041Z,0.60
2018-01-25T04:33:54.353Z,0.80
2018-01-25T04:36:22.690Z,0.60
2018-01-25T04:38:51.001Z,0.60
2018-01-25T04:41:19.342Z,0.62
2018-01-25T04:43:47.657Z,0.85
2018-01-25T04:46:16.001Z,1.17
2018-01-25T04:48:44.321Z,0.80
2018-01-25T04:51:12.657Z,1.05
2018-01-25T04:53:40.974Z,0.93
2018-01-25T04:56:09.312Z,0.60
2018-01-25T04:58:37.620Z,1.10
2018-01-25T05:01:05.965Z,1.00
2018-01-25T05:03:34.277Z,0.82
2018-01-25T05:06:02.609Z,0.95
2018-01-25T05:08:30.929Z,0.80
2018-01-25T05:10:59.261Z,0.80
2018-01-25T05:13:27.577Z,0.70
2018-01-25T05:15:55.925Z,0.50
2018-01-25T05:18:24.241Z,0.80
2018-01-25T05:20:52.573Z,0.88
2018-01-25T05:23:20.909Z,1.00
2018-01-25T05:25:49.219Z,1.10
2018-01-25T05:28:17.550Z,0.77
2018-01-25T05:30:45.870Z,1.27
2018-01-25T05:33:14.213Z,1.50
2018-01-25T05:35:42.525Z,0.77
2018-01-25T05:38:10.862Z,1.80
2018-01-25T05:40:39.182Z,0.87
2018-01-25T05:43:07.555Z,1.07
2018-01-25T05:45:36.925Z,1.20
2018-01-25T05:48:06.132Z,1.47
2018-01-25T05:50:34.451Z,1.47
2018-01-25T05:53:06.896Z,1.67
2018-01-25T05:55:36.352Z,1.70
2018-01-25T05:58:04.701Z,1.20
2018-01-25T06:00:33.018Z,1.60
2018-01-25T06:03:01.357Z,1.37
2018-01-25T06:05:29.680Z,1.47
2018-01-25T06:07:58.018Z,1.80
2018-01-25T06:10:26.395Z,1.27
2018-01-25T06:12:54.757Z,1.20
2018-01-25T06:15:23.115Z,1.27
2018-01-25T06:17:51.453Z,2.97
2018-01-25T06:20:19.773Z,1.30
2018-01-25T06:22:48.113Z,2.83
2018-01-25T06:25:16.453Z,1.10
2018-01-25T06:27:44.785Z,1.27
2018-01-25T06:30:13.201Z,1.37
2018-01-25T06:32:41.546Z,1.08
2018-01-25T06:35:09.868Z,1.40
2018-01-25T06:37:38.206Z,1.50
2018-01-25T06:40:06.521Z,1.10
2018-01-25T06:42:34.849Z,1.40
2018-01-25T06:45:03.186Z,1.13
2018-01-25T06:47:31.818Z,1.52
2018-01-25T06:50:00.133Z,1.65
2018-01-25T06:52:28.478Z,2.30
2018-01-25T06:54:56.793Z,2.15
2018-01-25T06:57:25.131Z,2.10
2018-01-25T06:59:53.593Z,2.33
2018-01-25T07:02:22.095Z,3.00
2018-01-25T07:04:50.421Z,2.93
2018-01-25T07:07:18.765Z,3.95
2018-01-25T07:09:47.082Z,4.70
2018-01-25T07:12:15.422Z,4.75
2018-01-25T07:14:43.746Z,4.82
2018-01-25T07:17:12.458Z,5.00
2018-01-25T07:19:40.778Z,4.77
2018-01-25T07:22:09.121Z,5.90
2018-01-25T07:24:37.462Z,6.27
2018-01-25T07:27:05.811Z,6.33
2018-01-25T07:29:34.134Z,6.57
2018-01-25T07:32:02.458Z,5.67
2018-01-25T07:34:30.803Z,5.57
2018-01-25T07:36:59.350Z,6.68
2018-01-25T07:39:27.704Z,5.80
2018-01-25T07:41:56.018Z,6.47
2018-01-25T07:44:24.366Z,7.30
2018-01-25T07:46:52.690Z,7.03
2018-01-25T07:49:21.033Z,8.47
2018-01-25T07:51:49.357Z,8.30
2018-01-25T07:54:17.702Z,6.77
2018-01-25T07:56:46.034Z,8.10
2018-01-25T07:59:14.374Z,8.80
2018-01-25T08:01:42.697Z,7.37
2018-01-25T08:04:11.038Z,8.40
2018-01-25T08:06:39.358Z,7.50
2018-01-25T08:09:07.701Z,8.52
2018-01-25T08:11:36.025Z,7.80
2018-01-25T08:14:04.370Z,7.90
2018-01-25T08:16:38.370Z,7.30
2018-01-25T08:19:07.229Z,6.82
2018-01-25T08:21:35.590Z,7.80
2018-01-25T08:24:03.945Z,7.70
2018-01-25T08:26:33.173Z,5.87
2018-01-25T08:29:01.518Z,7.97
2018-01-25T08:31:29.841Z,7.10
2018-01-25T08:33:58.182Z,6.20
2018-01-25T08:36:26.510Z,5.50
2018-01-25T08:38:54.853Z,6.00
2018-01-25T08:41:23.178Z,6.87
2018-01-25T08:43:51.520Z,5.80
2018-01-25T08:46:19.841Z,5.60
2018-01-25T08:48:48.189Z,6.05
2018-01-25T08:51:16.509Z,4.97
2018-01-25T08:53:44.849Z,4.73
2018-01-25T08:56:13.170Z,5.97
2018-01-25T08:58:41.761Z,5.12
2018-01-25T09:01:10.086Z,4.53
2018-01-25T09:03:38.433Z,6.47
2018-01-25T09:06:06.757Z,4.82
2018-01-25T09:08:35.101Z,5.20
2018-01-25T09:11:03.422Z,4.80
2018-01-25T09:13:31.772Z,4.20
2018-01-25T09:16:00.094Z,3.80
2018-01-25T09:18:28.571Z,3.87
2018-01-25T09:20:56.881Z,3.70
2018-01-25T09:23:25.222Z,3.30
2018-01-25T09:25:53.545Z,3.17
2018-01-25T09:28:21.889Z,3.50
2018-01-25T09:30:50.209Z,2.90
2018-01-25T09:33:18.560Z,2.78
2018-01-25T09:35:46.877Z,2.50
2018-01-25T09:38:15.189Z,2.33
2018-01-25T09:40:43.529Z,2.10
2018-01-25T09:43:11.849Z,2.47
2018-01-25T09:45:40.189Z,2.20
2018-01-25T09:48:08.516Z,2.85
2018-01-25T09:50:36.857Z,2.00
2018-01-25T09:53:05.165Z,2.13
2018-01-25T09:55:33.724Z,2.27
2018-01-25T09:58:02.025Z,2.27
2018-01-25T10:00:30.373Z,2.10
2018-01-25T10:02:58.857Z,2.60
2018-01-25T10:05:27.194Z,1.85
2018-01-25T10:07:55.517Z,1.95
2018-01-25T10:10:23.861Z,1.42
2018-01-25T10:12:52.182Z,2.23
2018-01-25T10:15:20.525Z,2.10
2018-01-25T10:17:48.846Z,1.83
2018-01-25T10:20:17.189Z,2.07
2018-01-25T10:22:46.277Z,2.07
2018-01-25T10:25:15.293Z,2.17
2018-01-25T10:27:43.627Z,2.10
2018-01-25T10:30:12.281Z,1.77
2018-01-25T10:32:40.607Z,1.77
2018-01-25T10:35:08.956Z,1.80
2018-01-25T10:37:37.265Z,1.83
2018-01-25T10:40:05.605Z,1.87
2018-01-25T10:42:33.925Z,1.70
2018-01-25T10:45:02.265Z,1.70
2018-01-25T10:47:30.638Z,1.45
2018-01-25T10:49:58.925Z,1.57
2018-01-25T10:52:27.309Z,1.75
2018-01-25T10:54:55.629Z,1.40
2018-01-25T10:57:23.976Z,1.87
2018-01-25T10:59:52.294Z,1.27
2018-01-25T11:02:20.614Z,1.40
2018-01-25T11:04:50.005Z,1.50
2018-01-25T11:07:18.362Z,2.23
2018-01-25T11:09:46.702Z,1.60
2018-01-25T11:12:15.022Z,2.83
2018-01-25T11:14:43.361Z,2.93
2018-01-25T11:17:11.686Z,2.20
2018-01-25T11:19:40.022Z,2.73
2018-01-25T11:22:08.333Z,2.60
2018-01-25T11:24:36.678Z,4.00
2018-01-25T11:27:05.053Z,2.72
2018-01-25T11:29:33.390Z,2.47
2018-01-25T11:32:01.755Z,3.15
2018-01-25T11:34:30.098Z,3.40
2018-01-25T11:36:58.413Z,3.63
2018-01-25T11:39:26.735Z,4.10
2018-01-25T11:41:55.121Z,5.03
2018-01-25T11:44:23.460Z,4.00
2018-01-25T11:46:51.805Z,4.17
2018-01-25T11:49:20.127Z,3.47
2018-01-25T11:51:48.486Z,4.90
2018-01-25T11:54:16.814Z,3.93
2018-01-25T11:56:45.163Z,4.67
2018-01-25T11:59:13.483Z,4.40
2018-01-25T12:01:41.817Z,3.78
2018-01-25T12:04:10.141Z,5.23
2018-01-25T12:06:38.482Z,5.43
2018-01-25T12:09:06.802Z,4.73
2018-01-25T12:11:35.141Z,4.68
2018-01-25T12:14:03.465Z,4.87
2018-01-25T12:16:31.814Z,5.33
2018-01-25T12:19:00.143Z,4.65
2018-01-25T12:21:28.485Z,5.40
2018-01-25T12:23:56.810Z,4.13
2018-01-25T12:26:26.592Z,4.60
2018-01-25T12:28:54.921Z,5.12
2018-01-25T12:31:23.294Z,5.47
2018-01-25T12:33:52.489Z,6.00
2018-01-25T12:36:20.937Z,4.77
2018-01-25T12:38:49.248Z,6.37
2018-01-25T12:41:17.594Z,5.07
2018-01-25T12:43:45.910Z,5.57
2018-01-25T12:46:14.249Z,5.87
2018-01-25T12:48:42.569Z,4.15
2018-01-25T12:51:10.918Z,4.40
2018-01-25T12:53:40.238Z,4.75
2018-01-25T12:56:08.557Z,4.73
2018-01-25T12:58:36.904Z,4.57
2018-01-25T13:01:05.221Z,4.30
2018-01-25T13:03:33.566Z,4.83
2018-01-25T13:06:02.865Z,4.40
2018-01-25T13:08:31.213Z,4.80
2018-01-25T13:10:59.542Z,4.70
2018-01-25T13:13:28.202Z,4.53
2018-01-25T13:15:56.641Z,4.00
2018-01-25T13:18:24.985Z,4.30
2018-01-25T13:20:53.318Z,5.43
2018-01-25T13:23:21.665Z,4.30
2018-01-25T13:25:49.994Z,4.50
2018-01-25T13:28:18.349Z,4.32
2018-01-25T13:30:46.680Z,7.20
2018-01-25T13:33:20.720Z,6.17
2018-01-25T13:35:49.054Z,4.20
2018-01-25T13:38:17.410Z,4.20
2018-01-25T13:40:45.744Z,4.20
2018-01-25T13:43:14.090Z,5.20
2018-01-25T13:45:42.409Z,4.30
2018-01-25T13:48:10.757Z,4.07
2018-01-25T13:50:39.096Z,5.57
2018-01-25T13:53:07.438Z,4.70
2018-01-25T13:55:35.762Z,5.00
2018-01-25T13:58:04.114Z,4.83
2018-01-25T14:00:32.442Z,4.70
2018-01-25T14:03:00.805Z,4.77
2018-01-25T14:05:29.137Z,4.77
2018-01-25T14:07:57.486Z,4.10
2018-01-25T14:10:25.818Z,4.30
2018-01-25T14:12:54.206Z,4.83
2018-01-25T14:15:22.545Z,3.87
2018-01-25T14:17:50.930Z,4.73
2018-01-25T14:20:19.261Z,4.80
2018-01-25T14:22:47.605Z,4.40
2018-01-25T14:25:15.944Z,5.28
2018-01-25T14:27:44.301Z,4.83
2018-01-25T14:30:12.633Z,4.43
2018-01-25T14:32:40.985Z,3.40
2018-01-25T14:35:09.310Z,3.97
2018-01-25T14:37:37.657Z,4.57
2018-01-25T14:40:05.985Z,5.00
2018-01-25T14:42:34.338Z,4.83
2018-01-25T14:45:02.667Z,4.20
2018-01-25T14:47:31.014Z,4.62
2018-01-25T14:49:59.345Z,4.47
2018-01-25T14:52:27.701Z,4.40
2018-01-25T14:54:56.358Z,5.10
2018-01-25T14:57:24.701Z,4.93
2018-01-25T14:59:53.061Z,4.87
2018-01-25T15:02:21.361Z,5.37
2018-01-25T15:04:49.823Z,4.90
2018-01-25T15:07:18.397Z,7.03
2018-01-25T15:09:46.747Z,6.37
2018-01-25T15:12:15.069Z,6.57
2018-01-25T15:14:43.420Z,6.00
2018-01-25T15:17:11.750Z,5.05
2018-01-25T15:19:40.113Z,4.93
2018-01-25T15:22:08.449Z,4.40
2018-01-25T15:24:36.802Z,5.53
2018-01-25T15:27:05.202Z,5.73
2018-01-25T15:29:33.593Z,4.22
2018-01-25T15:32:03.326Z,4.75
2018-01-25T15:34:31.788Z,5.25
2018-01-25T15:37:00.249Z,4.70
2018-01-25T15:39:28.592Z,4.93
2018-01-25T15:41:56.987Z,4.27
2018-01-25T15:44:25.453Z,4.80
2018-01-25T15:46:53.781Z,4.47
2018-01-25T15:49:22.165Z,5.45
2018-01-25T15:51:50.490Z,4.35
2018-01-25T15:54:18.837Z,5.00
2018-01-25T15:56:47.157Z,5.13
2018-01-25T15:59:15.503Z,4.87
2018-01-25T16:01:43.825Z,4.33
2018-01-25T16:04:12.174Z,4.82
2018-01-25T16:06:40.502Z,5.00
2018-01-25T16:09:08.846Z,5.07
2018-01-25T16:11:37.170Z,5.33
2018-01-25T16:14:05.508Z,5.70
2018-01-25T16:16:33.837Z,4.93
2018-01-25T16:19:02.186Z,5.97
2018-01-25T16:21:30.510Z,6.27
2018-01-25T16:23:58.849Z,5.33
2018-01-25T16:26:27.174Z,5.70
2018-01-25T16:28:55.650Z,5.78
2018-01-25T16:31:23.973Z,5.63
2018-01-25T16:33:52.365Z,5.87
2018-01-25T16:36:20.638Z,5.43
2018-01-25T16:38:48.992Z,6.62
2018-01-25T16:41:17.309Z,5.60
2018-01-25T16:43:45.653Z,4.82
2018-01-25T16:46:13.982Z,5.30
2018-01-25T16:48:42.330Z,4.53
2018-01-25T16:51:10.650Z,4.27
2018-01-25T16:53:38.989Z,4.60
2018-01-25T16:56:07.309Z,4.30
2018-01-25T16:58:35.649Z,3.50
2018-01-25T17:01:03.975Z,3.35
2018-01-25T17:03:32.298Z,3.90
2018-01-25T17:06:00.643Z,3.95
2018-01-25T17:08:28.965Z,3.40
2018-01-25T17:10:57.310Z,6.90
2018-01-25T17:13:25.633Z,3.37
2018-01-25T17:15:53.974Z,3.25
2018-01-25T17:18:22.301Z,3.40
2018-01-25T17:20:50.649Z,3.43
2018-01-25T17:23:18.968Z,1.87
2018-01-25T17:25:47.305Z,2.10
2018-01-25T17:28:16.350Z,1.92
2018-01-25T17:30:44.690Z,2.00
2018-01-25T17:33:13.061Z,2.33
2018-01-25T17:35:41.440Z,1.95
2018-01-25T17:38:09.757Z,2.30
2018-01-25T17:40:38.133Z,2.33
2018-01-25T17:43:06.713Z,2.40
2018-01-25T17:45:35.666Z,2.27
2018-01-25T17:48:03.990Z,2.55
2018-01-25T17:50:32.455Z,2.30
2018-01-25T17:53:00.772Z,2.87
2018-01-25T17:55:29.100Z,2.10
2018-01-25T17:57:57.427Z,2.00
2018-01-25T18:00:25.769Z,2.93
2018-01-25T18:02:54.095Z,3.55
2018-01-25T18:05:22.448Z,3.17
2018-01-25T18:07:51.016Z,4.00
2018-01-25T18:10:19.357Z,3.35
2018-01-25T18:12:47.705Z,1.93
2018-01-25T18:15:16.451Z,2.90
2018-01-25T18:17:44.786Z,2.60
2018-01-25T18:20:13.129Z,2.30
2018-01-25T18:22:41.565Z,1.80
2018-01-25T18:25:09.934Z,1.92
2018-01-25T18:27:38.245Z,1.70
2018-01-25T18:30:06.577Z,2.00
2018-01-25T18:32:34.905Z,1.30
2018-01-25T18:35:03.320Z,1.83
2018-01-25T18:37:31.643Z,2.37
2018-01-25T18:39:59.981Z,1.60
2018-01-25T18:42:28.411Z,2.15
2018-01-25T18:44:56.753Z,1.90
2018-01-25T18:47:26.217Z,1.92
2018-01-25T18:49:54.701Z,2.30
2018-01-25T18:52:23.022Z,1.97
2018-01-25T18:54:51.445Z,2.37
2018-01-25T18:57:20.183Z,5.00
2018-01-25T18:59:48.546Z,5.55
2018-01-25T19:02:16.894Z,5.33
2018-01-25T19:04:45.318Z,4.22
2018-01-25T19:07:13.638Z,3.42
2018-01-25T19:09:42.022Z,3.83
2018-01-25T19:12:10.602Z,3.80
2018-01-25T19:14:38.909Z,3.55
2018-01-25T19:17:07.358Z,2.70
2018-01-25T19:19:35.761Z,3.60
2018-01-25T19:22:04.104Z,3.70
2018-01-25T19:24:32.585Z,3.10
2018-01-25T19:27:00.909Z,2.70
2018-01-25T19:29:29.225Z,3.20
2018-01-25T19:31:57.570Z,3.77
2018-01-25T19:34:25.885Z,3.13
2018-01-25T19:36:54.221Z,3.67
2018-01-25T19:39:22.541Z,3.33
2018-01-25T19:41:50.885Z,3.93
2018-01-25T19:44:19.210Z,3.40
2018-01-25T19:46:47.545Z,2.00
2018-01-25T19:49:16.093Z,3.28
2018-01-25T19:51:44.429Z,2.10
2018-01-25T19:54:12.745Z,2.57
2018-01-25T19:56:41.108Z,2.83
2018-01-25T19:59:09.429Z,2.93
2018-01-25T20:01:38.109Z,3.17
2018-01-25T20:04:07.394Z,2.63
2018-01-25T20:06:35.975Z,1.98
2018-01-25T20:09:04.294Z,2.73
2018-01-25T20:11:32.706Z,2.23
2018-01-25T20:14:01.005Z,1.98
2018-01-25T20:16:30.333Z,2.00
2018-01-25T20:18:58.661Z,1.92
2018-01-25T20:21:27.009Z,1.90
2018-01-25T20:23:55.399Z,1.77
2018-01-25T20:26:23.957Z,2.20
2018-01-25T20:28:52.433Z,1.80
2018-01-25T20:31:20.753Z,2.03
2018-01-25T20:33:49.072Z,1.90
2018-01-25T20:36:17.404Z,2.40
2018-01-25T20:38:45.725Z,1.80
2018-01-25T20:41:14.073Z,2.87
2018-01-25T20:43:42.389Z,2.67
2018-01-25T20:46:10.721Z,2.30
2018-01-25T20:48:39.037Z,2.08
2018-01-25T20:51:07.383Z,1.50
2018-01-25T20:53:35.710Z,2.63
2018-01-25T20:56:04.990Z,1.75
2018-01-25T20:58:33.314Z,2.30
2018-01-25T21:01:01.645Z,2.30
2018-01-25T21:03:29.978Z,1.96
2018-01-25T21:05:59.201Z,3.90
2018-01-25T21:08:27.610Z,2.12
2018-01-25T21:10:55.985Z,2.53
2018-01-25T21:13:24.298Z,2.33
2018-01-25T21:15:53.473Z,2.00
2018-01-25T21:18:21.809Z,2.62
2018-01-25T21:20:50.125Z,1.80
2018-01-25T21:23:18.482Z,2.50
2018-01-25T21:25:48.546Z,3.30
2018-01-25T21:28:16.877Z,2.60
2018-01-25T21:30:45.249Z,2.20
2018-01-25T21:33:13.577Z,3.15
2018-01-25T21:35:42.894Z,3.03
2018-01-25T21:38:11.245Z,3.63
2018-01-25T21:40:39.600Z,3.40
2018-01-25T21:43:07.933Z,2.83
2018-01-25T21:45:37.213Z,3.20
2018-01-25T21:48:05.554Z,4.80
2018-01-25T21:50:44.707Z,5.00
2018-01-25T21:53:18.805Z,3.27
2018-01-25T21:55:47.124Z,3.42
2018-01-25T21:58:15.466Z,2.53
2018-01-25T22:00:43.829Z,2.13
2018-01-25T22:03:12.221Z,2.47
2018-01-25T22:05:40.541Z,2.23
2018-01-25T22:08:08.877Z,2.50
2018-01-25T22:10:37.223Z,2.30
2018-01-25T22:13:05.727Z,2.55
2018-01-25T22:15:34.037Z,2.17
2018-01-25T22:18:02.369Z,2.62
2018-01-25T22:20:30.687Z,2.43
2018-01-25T22:22:59.026Z,2.43
2018-01-25T22:25:27.351Z,2.57
2018-01-25T22:27:55.686Z,2.20
2018-01-25T22:30:23.996Z,2.72
2018-01-25T22:32:52.332Z,2.70
2018-01-25T22:35:20.649Z,2.40
2018-01-25T22:37:48.989Z,2.53
2018-01-25T22:40:17.300Z,2.28
2018-01-25T22:42:45.641Z,2.45
2018-01-25T22:45:13.964Z,2.70
2018-01-25T22:47:42.304Z,2.17
2018-01-25T22:50:10.625Z,2.33
2018-01-25T22:52:38.966Z,1.90
2018-01-25T22:55:07.295Z,2.80
2018-01-25T22:57:35.622Z,2.25
2018-01-25T23:00:03.946Z,2.58
2018-01-25T23:02:32.276Z,2.20
2018-01-25T23:05:00.592Z,2.60
2018-01-25T23:07:28.928Z,2.00
2018-01-25T23:09:57.245Z,2.10
2018-01-25T23:12:25.572Z,2.58
2018-01-25T23:14:53.886Z,2.60
2018-01-25T23:17:22.217Z,2.47
2018-01-25T23:19:50.533Z,3.75
2018-01-25T23:22:18.870Z,3.05
2018-01-25T23:24:47.189Z,3.50
2018-01-25T23:27:15.530Z,3.60
2018-01-25T23:29:43.841Z,3.65
2018-01-25T23:32:12.160Z,3.30
2018-01-25T23:34:40.504Z,3.67
2018-01-25T23:37:08.809Z,3.53
2018-01-25T23:39:37.140Z,3.35
2018-01-25T23:42:05.452Z,4.43
2018-01-25T23:44:33.793Z,4.10
2018-01-25T23:47:02.152Z,4.95
2018-01-25T23:49:30.445Z,4.20
2018-01-25T23:51:58.765Z,5.10
2018-01-25T23:54:27.105Z,4.35
2018-01-25T23:56:55.426Z,3.90
2018-01-25T23:59:23.756Z,5.07
